Shuya, Russia
Current Conditions -  °F | °C
As of 8:30 AM on Monday 22 Dec 2014 (Local Time) from UUDL Reporting Station
Broken Clouds Broken Clouds  
Wind Chill: 18°   Ceiling: 2000
Heat Index: 27°   Visibility: 6mi
Dew Point: 23°   Wind: 9mph
Humidity: 86%   Direction: 240°WSW
Pressure: 29.35"   Gusts: NA
Location:  56.85°N, 41.36°E
Report Text: UUDL 220530Z 24004MPS 9999 BKN020CB BKN100 M03/M05 Q0994 NOSIGRMK QFE737 23490341
Loading
Personal Weather Stations






























Interactive Weather Map New forecast layout! Learn more

10-Day Weather Forecast

Advertisements
Track Severe Weather on mobile